台北 の空港の天気 - METARとTAF

台湾桃園国際空港 ( RCTP / TPE ) - 台湾 台北市
飛行場実況気象(Metar)
観測時間01/23 16:00 CST (01/23 08:00 UTC)
風向・風速北北東 10m/s 瞬間風速15m/s
視程10km以上
天気現象
少しの雲 雲底高度 610m
全天の8割程度の雲 雲底高度 1070m
気温19℃
湿度78%
気圧1014hPa
METARRCTP 230800Z 03020G30KT 9999 FEW020 BKN035 19/15 Q1014 NOSIG RMK A2997
過去の天気等 Google飛行場航空写真 Wunderground天気予報

過去48時間のMETAR

飛行場予報(TAF)
発表時間: 1/23 13:00 CST (1/23 05:00 UTC)
予報対象時間: 23日14時 CST ~ 24日20時 CST
風向・風速北東 7m/s
視程10km以上
少しの雲 雲底高度 460m
全天の4割程度の雲 雲底高度 1,070m
全天の8割程度の雲 雲底高度 2,440m
23日18時 CST ~ 23日22時 CST に一時的に
全天の4割程度の雲 雲底高度 300m
全天の8割程度の雲 雲底高度 490m
全天の8割程度の雲 雲底高度 910m
24日4時 CST ~ 24日10時 CST に一時的に
風向・風速東 4m/s
全天の4割程度の雲 雲底高度 240m
全天の8割程度の雲 雲底高度 370m
全天の8割程度の雲 雲底高度 760m
24日18時 CST ~ 24日20時 CST に徐々に
風向・風速東 6m/s
少しの雲 雲底高度 370m
全天の8割程度の雲 雲底高度 980m
TAF RCTP 230500Z 2306/2412 05014KT 9999 FEW015 SCT035 BKN080
TEMPO 2310/2314 SCT010 BKN016 BKN030
TEMPO 2320/2402 08008KT SCT008 BKN012 BKN025
BECMG 2410/2412 08012KT FEW012 BKN032